createdAt,value
2023-03-06T00:03:37.319Z,2.22
2023-03-06T00:08:38.997Z,2.17
2023-03-06T00:13:40.609Z,2.13
2023-03-06T00:18:44.060Z,2.08
2023-03-06T00:23:45.695Z,2.09
2023-03-06T00:28:47.370Z,2.18
2023-03-06T00:33:51.710Z,2.15
2023-03-06T00:38:53.425Z,2.15
2023-03-06T00:43:55.074Z,2.13
2023-03-06T00:48:56.810Z,2.14
2023-03-06T00:53:58.475Z,2.14
2023-03-06T00:59:00.227Z,2.14
2023-03-06T01:04:01.923Z,2.14
2023-03-06T01:09:04.161Z,2.10
2023-03-06T01:14:05.990Z,2.11
2023-03-06T01:19:07.749Z,2.06
2023-03-06T01:24:09.429Z,2.06
2023-03-06T01:29:11.237Z,2.02
2023-03-06T01:34:12.984Z,1.96
2023-03-06T01:39:14.649Z,1.87
2023-03-06T01:44:16.347Z,1.85
2023-03-06T01:49:27.799Z,1.83
2023-03-06T01:54:35.280Z,1.86
2023-03-06T01:59:38.394Z,1.81
2023-03-06T02:04:42.381Z,1.80
2023-03-06T02:09:44.009Z,1.76
2023-03-06T02:14:46.407Z,1.77
2023-03-06T02:20:17.302Z,1.78
2023-03-06T02:25:31.424Z,1.80
2023-03-06T02:30:33.780Z,1.84
2023-03-06T02:35:38.476Z,1.84
2023-03-06T02:40:42.367Z,1.84
2023-03-06T02:45:49.604Z,1.84
2023-03-06T02:50:51.361Z,1.78
2023-03-06T02:55:53.273Z,1.72
2023-03-06T03:00:55.852Z,1.66
2023-03-06T03:05:57.854Z,1.61
2023-03-06T03:11:05.327Z,1.53
2023-03-06T03:16:18.160Z,1.44
2023-03-06T03:21:20.169Z,1.37
2023-03-06T03:26:23.398Z,1.33
2023-03-06T03:31:39.149Z,1.26
2023-03-06T03:36:41.022Z,1.27
2023-03-06T03:41:44.482Z,1.20
2023-03-06T03:46:47.309Z,1.19
2023-03-06T03:51:54.493Z,1.19
2023-03-06T03:56:58.193Z,1.19
2023-03-06T04:02:05.073Z,1.19
2023-03-06T04:07:11.735Z,1.18
2023-03-06T04:12:14.408Z,1.17
2023-03-06T04:17:17.443Z,1.19
2023-03-06T04:22:19.683Z,1.17
2023-03-06T04:27:21.843Z,1.20
2023-03-06T04:32:24.318Z,1.25
2023-03-06T04:37:27.069Z,1.24
2023-03-06T04:42:29.754Z,1.22
2023-03-06T04:47:31.395Z,1.19
2023-03-06T04:52:33.206Z,1.13
2023-03-06T04:57:39.217Z,1.09
2023-03-06T05:02:42.932Z,1.10
2023-03-06T05:07:44.757Z,1.13
2023-03-06T05:12:46.562Z,1.11
2023-03-06T05:17:48.275Z,1.11
2023-03-06T05:22:50.541Z,1.08
2023-03-06T05:27:52.212Z,1.07
2023-03-06T05:32:54.283Z,1.04
2023-03-06T05:37:56.394Z,0.97
2023-03-06T05:42:58.049Z,0.92
2023-03-06T05:47:59.719Z,0.90
2023-03-06T05:53:01.574Z,0.89
2023-03-06T05:58:03.472Z,0.88
2023-03-06T06:03:05.192Z,0.90
2023-03-06T06:08:06.861Z,0.88
2023-03-06T06:13:08.530Z,0.90
2023-03-06T06:18:10.131Z,0.85
2023-03-06T06:23:11.825Z,0.80
2023-03-06T06:28:13.447Z,0.79
2023-03-06T06:33:15.100Z,0.80
2023-03-06T06:38:16.914Z,0.85
2023-03-06T06:43:18.637Z,0.93
2023-03-06T06:48:20.454Z,1.13
2023-03-06T06:53:22.110Z,1.24
2023-03-06T06:58:23.772Z,1.43
2023-03-06T07:03:25.451Z,1.58
2023-03-06T07:08:27.296Z,1.75
2023-03-06T07:13:28.921Z,1.94
2023-03-06T07:18:30.667Z,2.08
2023-03-06T07:23:32.347Z,2.26
2023-03-06T07:28:49.873Z,2.32
2023-03-06T07:33:54.316Z,2.43
2023-03-06T07:38:55.941Z,2.59
2023-03-06T07:43:57.609Z,2.79
2023-03-06T07:48:59.342Z,2.80
2023-03-06T07:54:00.984Z,3.04
2023-03-06T07:59:03.140Z,3.09
2023-03-06T08:04:05.490Z,3.16
2023-03-06T08:09:07.182Z,3.09
2023-03-06T08:14:08.849Z,3.13
2023-03-06T08:19:10.528Z,3.17
2023-03-06T08:24:13.244Z,3.30
2023-03-06T08:29:15.513Z,3.60
2023-03-06T08:34:20.383Z,3.68
2023-03-06T08:39:23.674Z,3.54
2023-03-06T08:44:25.421Z,3.43
2023-03-06T08:49:27.088Z,3.46
2023-03-06T08:54:28.726Z,3.43
2023-03-06T08:59:30.353Z,3.55
2023-03-06T09:04:32.064Z,3.34
2023-03-06T09:09:33.709Z,3.32
2023-03-06T09:14:35.439Z,3.39
2023-03-06T09:19:38.305Z,3.45
2023-03-06T09:24:39.932Z,3.67
2023-03-06T09:29:41.632Z,3.75
2023-03-06T09:34:43.616Z,3.79
2023-03-06T09:39:45.273Z,4.04
2023-03-06T09:44:55.298Z,4.33
2023-03-06T09:50:04.999Z,4.46
2023-03-06T09:55:17.146Z,4.65
2023-03-06T10:00:25.289Z,4.95
2023-03-06T10:05:33.228Z,5.10
2023-03-06T10:10:44.724Z,5.20
2023-03-06T10:15:47.566Z,4.89
2023-03-06T10:21:00.949Z,4.92
2023-03-06T10:26:40.600Z,4.71
2023-03-06T10:31:51.844Z,4.66
2023-03-06T10:36:53.692Z,4.52
2023-03-06T10:41:55.746Z,4.78
2023-03-06T10:46:57.514Z,4.63
2023-03-06T10:51:59.151Z,4.59
2023-03-06T10:57:18.102Z,4.83
2023-03-06T11:02:25.960Z,4.82
2023-03-06T11:07:34.529Z,4.56
2023-03-06T11:12:38.269Z,4.30
2023-03-06T11:18:07.965Z,4.55
2023-03-06T11:23:12.294Z,4.52
2023-03-06T11:28:32.207Z,4.08
2023-03-06T11:33:50.261Z,3.77
2023-03-06T11:38:53.979Z,3.61
2023-03-06T11:44:04.435Z,3.56
2023-03-06T11:49:17.987Z,3.60
2023-03-06T11:54:19.703Z,3.71
2023-03-06T11:59:46.103Z,4.03
2023-03-06T12:05:21.238Z,4.31
2023-03-06T12:10:30.877Z,4.83
2023-03-06T12:15:46.920Z,5.25
2023-03-06T12:21:16.478Z,5.16
2023-03-06T12:26:55.457Z,5.27
2023-03-06T12:32:25.140Z,5.56
2023-03-06T12:38:04.339Z,5.42
2023-03-06T12:43:33.839Z,5.14
2023-03-06T12:48:36.592Z,5.00
2023-03-06T12:53:39.474Z,5.14
2023-03-06T12:58:54.597Z,4.75
2023-03-06T13:04:14.936Z,4.46
2023-03-06T13:09:25.869Z,3.87
2023-03-06T13:14:34.275Z,3.33
2023-03-06T13:19:37.703Z,3.24
2023-03-06T13:24:39.352Z,2.94
2023-03-06T13:29:40.935Z,2.85
2023-03-06T13:34:46.903Z,3.16
2023-03-06T13:39:58.459Z,3.19
2023-03-06T13:45:06.995Z,3.38
2023-03-06T13:50:16.728Z,3.55
2023-03-06T13:55:46.009Z,3.57
2023-03-06T14:01:21.425Z,3.60
2023-03-06T14:06:47.012Z,3.80
2023-03-06T14:12:16.737Z,3.90
2023-03-06T14:17:24.112Z,4.03
2023-03-06T14:22:25.845Z,4.02
2023-03-06T14:27:46.196Z,4.03
2023-03-06T14:32:49.904Z,4.12
2023-03-06T14:37:53.214Z,4.24
2023-03-06T14:43:18.486Z,4.28
2023-03-06T14:48:20.819Z,4.32
2023-03-06T14:53:29.257Z,4.37
2023-03-06T14:58:38.741Z,4.35
2023-03-06T15:03:46.978Z,4.42
2023-03-06T15:08:58.738Z,4.31
2023-03-06T15:14:05.174Z,4.41
2023-03-06T15:19:18.538Z,4.40
2023-03-06T15:24:31.861Z,4.35
2023-03-06T15:29:34.843Z,4.31
2023-03-06T15:34:36.522Z,4.28
2023-03-06T15:39:40.562Z,4.24
2023-03-06T15:44:42.482Z,4.25
2023-03-06T15:49:44.577Z,4.19
2023-03-06T15:54:46.254Z,4.16
2023-03-06T15:59:47.946Z,3.94
2023-03-06T16:04:50.115Z,3.09
2023-03-06T16:09:51.843Z,2.36
2023-03-06T16:14:53.772Z,2.04
2023-03-06T16:19:55.418Z,1.80
2023-03-06T16:24:57.066Z,1.73
2023-03-06T16:29:58.682Z,1.72
2023-03-06T16:35:00.338Z,1.70
2023-03-06T16:40:02.029Z,1.65
2023-03-06T16:45:04.158Z,1.65
2023-03-06T16:50:06.038Z,1.65
2023-03-06T16:55:07.943Z,1.56
2023-03-06T17:00:11.430Z,1.60
2023-03-06T17:05:13.161Z,1.58
2023-03-06T17:10:16.985Z,1.73
2023-03-06T17:15:18.955Z,1.79
2023-03-06T17:20:20.800Z,2.03
2023-03-06T17:25:22.471Z,1.95
2023-03-06T17:30:24.089Z,1.90
2023-03-06T17:35:25.735Z,1.84
2023-03-06T17:40:27.489Z,1.81
2023-03-06T17:45:29.557Z,1.84
2023-03-06T17:50:31.207Z,1.78
2023-03-06T17:55:32.804Z,1.75
2023-03-06T18:00:34.804Z,1.82
2023-03-06T18:05:37.170Z,1.90
2023-03-06T18:10:49.329Z,1.93
2023-03-06T18:15:59.245Z,1.86
2023-03-06T18:21:05.684Z,1.83
2023-03-06T18:26:14.696Z,1.84
2023-03-06T18:31:18.370Z,1.86
2023-03-06T18:36:22.191Z,1.88
2023-03-06T18:41:24.432Z,1.94
2023-03-06T18:46:30.376Z,1.92
2023-03-06T18:51:32.491Z,1.88
2023-03-06T18:56:34.787Z,1.87
2023-03-06T19:01:37.703Z,1.86
2023-03-06T19:06:39.840Z,1.85
2023-03-06T19:11:42.754Z,1.84
2023-03-06T19:16:44.479Z,1.80
2023-03-06T19:21:46.193Z,1.80
2023-03-06T19:26:47.860Z,1.81
2023-03-06T19:31:50.886Z,1.82
2023-03-06T19:36:52.717Z,1.85
2023-03-06T19:41:54.590Z,1.87
2023-03-06T19:46:56.665Z,1.88
2023-03-06T19:51:58.338Z,1.84
2023-03-06T19:57:00.009Z,1.79
2023-03-06T20:02:01.677Z,1.76
2023-03-06T20:07:04.895Z,1.77
2023-03-06T20:12:08.277Z,1.80
2023-03-06T20:17:10.025Z,1.80
2023-03-06T20:22:11.918Z,1.78
2023-03-06T20:27:13.746Z,1.70
2023-03-06T20:32:15.450Z,1.56
2023-03-06T20:37:28.041Z,1.56
2023-03-06T20:42:30.738Z,1.47
2023-03-06T20:47:48.130Z,1.36
2023-03-06T20:52:56.213Z,1.36
2023-03-06T21:04:45.253Z,1.43
2023-03-06T21:09:47.692Z,1.49
2023-03-06T21:14:49.316Z,1.52
2023-03-06T21:19:52.733Z,1.53
2023-03-06T21:24:54.369Z,1.47
2023-03-06T21:29:56.094Z,1.40
2023-03-06T21:34:57.876Z,1.28
2023-03-06T21:40:00.384Z,1.16
2023-03-06T21:45:04.022Z,1.14
2023-03-06T21:50:07.352Z,0.98
2023-03-06T21:55:09.562Z,0.90
2023-03-06T22:00:12.875Z,0.74
2023-03-06T22:05:14.624Z,0.75
2023-03-06T22:10:16.324Z,0.71
2023-03-06T22:15:18.196Z,0.65
2023-03-06T22:20:19.852Z,0.57
2023-03-06T22:25:21.801Z,0.51
2023-03-06T22:30:23.835Z,0.52
2023-03-06T22:35:25.704Z,0.66
2023-03-06T22:40:27.368Z,0.74
2023-03-06T22:45:29.062Z,0.78
2023-03-06T22:50:31.012Z,0.78
2023-03-06T22:55:35.569Z,0.82
2023-03-06T23:00:37.336Z,0.88
2023-03-06T23:05:43.088Z,0.96
2023-03-06T23:10:44.709Z,1.05
2023-03-06T23:16:06.932Z,1.10
2023-03-06T23:21:27.108Z,1.16
2023-03-06T23:26:47.217Z,1.22
2023-03-06T23:31:48.854Z,1.25
2023-03-06T23:36:51.183Z,1.30
2023-03-06T23:41:53.831Z,1.30
2023-03-06T23:46:55.603Z,1.29
2023-03-06T23:51:57.240Z,1.32
2023-03-06T23:56:58.863Z,1.31
